createdAt,value
2022-12-24T00:01:46.630Z,102033.94
2022-12-24T00:04:13.995Z,102028.81
2022-12-24T00:06:41.670Z,102032.72
2022-12-24T00:09:10.381Z,102029.75
2022-12-24T00:11:37.976Z,102031.72
2022-12-24T00:14:05.794Z,102026.75
2022-12-24T00:16:33.413Z,102030.69
2022-12-24T00:19:00.863Z,102025.94
2022-12-24T00:21:29.335Z,102024.91
2022-12-24T00:23:56.728Z,102024.72
2022-12-24T00:26:24.150Z,102026.50
2022-12-24T00:28:51.680Z,102025.28
2022-12-24T00:31:19.832Z,102022.47
2022-12-24T00:33:47.954Z,102023.16
2022-12-24T00:36:16.254Z,102026.31
2022-12-24T00:38:44.666Z,102020.06
2022-12-24T00:41:25.357Z,102019.53
2022-12-24T00:43:54.939Z,102012.63
2022-12-24T00:46:23.755Z,102017.81
2022-12-24T00:48:52.015Z,102017.06
2022-12-24T00:51:21.094Z,102012.41
2022-12-24T00:53:49.413Z,102005.53
2022-12-24T00:56:17.231Z,102005.91
2022-12-24T00:58:44.922Z,101990.44
2022-12-24T01:01:13.016Z,102002.47
2022-12-24T01:03:41.138Z,101992.13
2022-12-24T01:06:14.846Z,102001.72
2022-12-24T01:08:43.015Z,101992.13
2022-12-24T01:14:00.208Z,101992.69
2022-12-24T01:16:27.725Z,101994.75
2022-12-24T01:18:55.364Z,101993.81
2022-12-24T01:21:22.841Z,101988.22
2022-12-24T01:23:50.989Z,101984.59
2022-12-24T01:26:18.373Z,101988.41
2022-12-24T01:28:45.943Z,101990.44
2022-12-24T01:31:14.722Z,101993.59
2022-12-24T01:33:43.558Z,101990.59
2022-12-24T01:36:11.309Z,101994.34
2022-12-24T01:38:38.744Z,101990.06
2022-12-24T01:41:24.538Z,101981.53
2022-12-24T01:43:52.153Z,101990.66
2022-12-24T01:46:30.431Z,101978.53
2022-12-24T01:49:04.832Z,101988.97
2022-12-24T01:51:42.990Z,101984.66
2022-12-24T01:54:16.373Z,101985.34
2022-12-24T01:56:49.352Z,101986.69
2022-12-24T01:59:20.321Z,101983.56
2022-12-24T02:01:50.288Z,101984.41
2022-12-24T02:04:29.960Z,101988.03
2022-12-24T02:06:57.864Z,101987.25
2022-12-24T02:09:25.925Z,101984.41
2022-12-24T02:11:53.613Z,101987.63
2022-12-24T02:14:21.816Z,101987.94
2022-12-24T02:16:58.361Z,101989.16
2022-12-24T02:20:03.604Z,101986.56
2022-12-24T02:22:50.107Z,101978.19
2022-12-24T02:25:30.288Z,101977.50
2022-12-24T02:27:57.740Z,101980.69
2022-12-24T02:30:46.150Z,101984.50
2022-12-24T02:33:34.146Z,101977.63
2022-12-24T02:36:11.691Z,101987.84
2022-12-24T02:38:47.619Z,101988.56
2022-12-24T02:42:13.221Z,101980.19
2022-12-24T02:45:02.163Z,101975.09
2022-12-24T02:47:34.064Z,101979.75
2022-12-24T02:50:05.687Z,101984.97
2022-12-24T02:52:45.235Z,101980.75
2022-12-24T02:55:18.044Z,101990.06
2022-12-24T02:58:00.637Z,101986.72
2022-12-24T03:00:37.639Z,101989.06
2022-12-24T03:03:42.426Z,101988.41
2022-12-24T03:06:19.935Z,101990.81
2022-12-24T03:09:12.703Z,101993.97
2022-12-24T03:11:48.893Z,101989.88
2022-12-24T03:14:18.929Z,101988.75
2022-12-24T03:16:47.115Z,101981.88
2022-12-24T03:19:14.728Z,101985.06
2022-12-24T03:21:43.052Z,101987.47
2022-12-24T03:24:11.300Z,101984.13
2022-12-24T03:26:39.774Z,101988.56
2022-12-24T03:29:08.429Z,101984.50
2022-12-24T03:31:48.451Z,101978.13
2022-12-24T03:34:17.009Z,101977.03
2022-12-24T03:36:45.505Z,101975.72
2022-12-24T03:39:12.837Z,101979.38
2022-12-24T03:41:40.304Z,101970.44
2022-12-24T03:44:07.832Z,101969.78
2022-12-24T03:46:35.235Z,101968.50
2022-12-24T03:49:02.711Z,101973.47
2022-12-24T03:51:30.223Z,101960.28
2022-12-24T03:53:58.309Z,101962.31
2022-12-24T03:56:26.579Z,101966.22
2022-12-24T03:58:54.175Z,101966.50
2022-12-24T04:01:21.731Z,101948.44
2022-12-24T04:06:39.730Z,101956.88
2022-12-24T04:09:07.075Z,101958.44
2022-12-24T04:11:34.696Z,101970.25
2022-12-24T04:14:02.181Z,101968.47
2022-12-24T04:16:29.910Z,101966.25
2022-12-24T04:18:57.374Z,101965.47
2022-12-24T04:21:25.011Z,101974.19
2022-12-24T04:23:52.529Z,101971.78
2022-12-24T04:26:20.014Z,101966.38
2022-12-24T04:28:47.461Z,101958.22
2022-12-24T04:31:17.843Z,101959.06
2022-12-24T04:33:46.023Z,101963.09
2022-12-24T04:36:19.989Z,101967.91
2022-12-24T04:38:48.919Z,101960.09
2022-12-24T04:41:25.621Z,101964.91
2022-12-24T04:43:55.085Z,101967.50
2022-12-24T04:46:25.428Z,101973.28
2022-12-24T04:48:55.000Z,101968.03
2022-12-24T04:51:23.833Z,101978.25
2022-12-24T04:53:51.704Z,101973.47
2022-12-24T04:56:22.883Z,101982.16
2022-12-24T04:58:51.463Z,101962.69
2022-12-24T05:01:39.272Z,101963.22
2022-12-24T05:04:07.220Z,101968.63
2022-12-24T05:06:35.245Z,101974.50
2022-12-24T05:09:02.874Z,101968.03
2022-12-24T05:11:31.059Z,101963.50
2022-12-24T05:13:58.703Z,101967.75
2022-12-24T05:16:26.235Z,101961.84
2022-12-24T05:18:54.187Z,101969.47
2022-12-24T05:21:23.899Z,101966.72
2022-12-24T05:26:57.752Z,101958.91
2022-12-24T05:29:25.466Z,101963.44
2022-12-24T05:31:53.146Z,101958.22
2022-12-24T05:34:20.490Z,101957.69
2022-12-24T05:39:29.836Z,101963.75
2022-12-24T05:41:57.279Z,101970.59
2022-12-24T05:44:24.773Z,101973.94
2022-12-24T05:46:52.172Z,101964.91
2022-12-24T05:49:19.836Z,101975.41
2022-12-24T05:51:47.259Z,101975.72
2022-12-24T05:54:14.872Z,101965.31
2022-12-24T05:56:42.366Z,101969.72
2022-12-24T05:59:10.070Z,101976.28
2022-12-24T06:01:37.552Z,101968.34
2022-12-24T06:04:05.658Z,101977.75
2022-12-24T06:06:33.171Z,101971.34
2022-12-24T06:09:00.881Z,101973.81
2022-12-24T06:11:30.356Z,101974.84
2022-12-24T06:13:57.924Z,101979.38
2022-12-24T06:16:26.210Z,101978.31
2022-12-24T06:18:54.104Z,101979.25
2022-12-24T06:21:21.560Z,101979.56
2022-12-24T06:23:49.095Z,101981.69
2022-12-24T06:26:19.886Z,101974.25
2022-12-24T06:28:50.255Z,101975.06
2022-12-24T06:31:20.911Z,101986.63
2022-12-24T06:33:49.040Z,101980.03
2022-12-24T06:36:19.654Z,101981.16
2022-12-24T06:38:48.144Z,101986.53
2022-12-24T06:41:16.990Z,101993.69
2022-12-24T06:43:49.375Z,101987.88
2022-12-24T06:46:17.835Z,101989.09
2022-12-24T06:48:45.815Z,101985.66
2022-12-24T06:51:14.957Z,101988.09
2022-12-24T06:56:27.525Z,101970.59
2022-12-24T06:58:58.764Z,101967.34
2022-12-24T07:01:29.276Z,101969.38
2022-12-24T07:03:56.868Z,101980.75
2022-12-24T07:06:29.998Z,101973.69
2022-12-24T07:08:57.750Z,101972.56
2022-12-24T07:11:26.621Z,101964.75
2022-12-24T07:13:54.219Z,101969.03
2022-12-24T07:16:22.018Z,101966.38
2022-12-24T07:18:49.728Z,101967.69
2022-12-24T07:21:17.280Z,101961.00
2022-12-24T07:23:44.769Z,101951.44
2022-12-24T07:26:18.152Z,101951.81
2022-12-24T07:28:45.636Z,101945.13
2022-12-24T07:31:13.198Z,101945.38
2022-12-24T07:33:40.849Z,101944.75
2022-12-24T07:36:14.813Z,101933.00
2022-12-24T07:38:42.393Z,101923.81
2022-12-24T07:41:09.793Z,101918.47
2022-12-24T07:43:37.466Z,101922.66
2022-12-24T07:46:05.200Z,101926.31
2022-12-24T07:48:33.394Z,101920.63
2022-12-24T07:51:01.413Z,101923.63
2022-12-24T07:53:30.152Z,101926.97
2022-12-24T07:55:58.722Z,101917.56
2022-12-24T07:58:26.640Z,101922.97
2022-12-24T08:01:00.648Z,101915.94
2022-12-24T08:03:28.623Z,101910.00
2022-12-24T08:05:56.347Z,101909.91
2022-12-24T08:08:23.842Z,101909.53
2022-12-24T08:10:51.555Z,101895.28
2022-12-24T08:13:19.221Z,101896.88
2022-12-24T08:15:46.755Z,101902.28
2022-12-24T08:18:14.326Z,101899.78
2022-12-24T08:20:42.089Z,101899.56
2022-12-24T08:23:09.794Z,101892.03
2022-12-24T08:25:37.908Z,101889.41
2022-12-24T08:28:06.585Z,101884.72
2022-12-24T08:30:34.166Z,101888.34
2022-12-24T08:33:02.106Z,101883.66
2022-12-24T08:35:29.727Z,101879.44
2022-12-24T08:37:57.239Z,101882.34
2022-12-24T08:40:24.964Z,101879.78
2022-12-24T08:42:52.596Z,101877.56
2022-12-24T08:45:20.556Z,101877.31
2022-12-24T08:47:48.652Z,101885.97
2022-12-24T08:50:16.533Z,101868.59
2022-12-24T08:52:44.266Z,101873.44
2022-12-24T08:55:11.849Z,101864.03
2022-12-24T08:57:40.041Z,101874.06
2022-12-24T09:00:08.854Z,101867.13
2022-12-24T09:02:36.382Z,101868.81
2022-12-24T09:05:04.788Z,101864.09
2022-12-24T09:07:32.292Z,101868.47
2022-12-24T09:10:00.273Z,101863.28
2022-12-24T09:12:27.698Z,101857.69
2022-12-24T09:15:04.523Z,101869.47
2022-12-24T09:17:36.636Z,101859.25
2022-12-24T09:20:07.195Z,101860.22
2022-12-24T09:22:37.392Z,101858.34
2022-12-24T09:25:06.580Z,101849.13
2022-12-24T09:27:34.139Z,101845.13
2022-12-24T09:30:01.562Z,101852.19
2022-12-24T09:32:30.680Z,101844.03
2022-12-24T09:34:58.338Z,101831.97
2022-12-24T09:37:26.035Z,101835.75
2022-12-24T09:39:53.597Z,101835.69
2022-12-24T09:42:39.158Z,101822.78
2022-12-24T09:45:24.870Z,101822.44
2022-12-24T09:47:57.868Z,101831.56
2022-12-24T09:50:32.063Z,101827.22
2022-12-24T09:53:04.921Z,101825.84
2022-12-24T09:55:46.717Z,101829.09
2022-12-24T09:58:24.206Z,101817.09
2022-12-24T10:00:52.927Z,101815.59
2022-12-24T10:03:20.605Z,101812.91
2022-12-24T10:05:53.916Z,101808.72
2022-12-24T10:08:32.284Z,101818.75
2022-12-24T10:11:15.329Z,101815.78
2022-12-24T10:14:12.047Z,101813.44
2022-12-24T10:19:58.701Z,101820.00
2022-12-24T10:22:54.790Z,101812.84
2022-12-24T10:25:37.994Z,101816.44
2022-12-24T10:28:14.758Z,101814.09
2022-12-24T10:30:43.811Z,101802.53
2022-12-24T10:33:20.645Z,101803.75
2022-12-24T10:35:54.211Z,101802.47
2022-12-24T10:38:21.663Z,101797.63
2022-12-24T10:40:51.998Z,101798.25
2022-12-24T10:43:25.247Z,101803.00
2022-12-24T10:46:00.139Z,101806.13
2022-12-24T10:48:36.753Z,101807.50
2022-12-24T10:51:13.589Z,101806.84
2022-12-24T10:53:47.416Z,101808.44
2022-12-24T10:56:17.812Z,101797.44
2022-12-24T10:58:51.169Z,101805.16
2022-12-24T11:01:19.114Z,101804.22
2022-12-24T11:04:00.005Z,101813.41
2022-12-24T11:06:27.682Z,101803.53
2022-12-24T11:09:12.481Z,101803.13
2022-12-24T11:14:40.459Z,101808.44
2022-12-24T11:17:08.377Z,101801.25
2022-12-24T11:19:40.358Z,101808.31
2022-12-24T11:22:31.597Z,101807.97
2022-12-24T11:25:07.614Z,101804.59
2022-12-24T11:27:47.688Z,101806.88
2022-12-24T11:30:16.065Z,101809.16
2022-12-24T11:32:56.756Z,101807.78
2022-12-24T11:35:26.893Z,101797.66
2022-12-24T11:38:03.501Z,101804.91
2022-12-24T11:40:58.641Z,101807.16
2022-12-24T11:43:44.675Z,101802.00
2022-12-24T11:46:37.457Z,101800.59
2022-12-24T11:52:13.002Z,101800.94
2022-12-24T11:55:08.894Z,101804.50
2022-12-24T11:57:55.961Z,101807.09
2022-12-24T12:00:23.423Z,101806.53
2022-12-24T12:05:39.503Z,101798.72
2022-12-24T12:08:20.621Z,101801.31
2022-12-24T12:10:52.463Z,101805.78
2022-12-24T12:13:24.735Z,101801.88
2022-12-24T12:15:58.172Z,101798.41
2022-12-24T12:18:33.113Z,101806.44
2022-12-24T12:21:06.692Z,101796.25
2022-12-24T12:23:37.311Z,101800.66
2022-12-24T12:26:18.166Z,101798.84
2022-12-24T12:28:59.666Z,101798.41
2022-12-24T12:31:45.408Z,101811.09
2022-12-24T12:34:21.271Z,101798.94
2022-12-24T12:36:53.817Z,101803.56
2022-12-24T12:39:21.306Z,101799.50
2022-12-24T12:45:27.027Z,101795.28
2022-12-24T12:48:04.596Z,101799.50
2022-12-24T12:50:51.883Z,101794.03
2022-12-24T12:54:00.731Z,101795.25
2022-12-24T12:56:34.005Z,101792.66
2022-12-24T12:59:19.581Z,101806.31
2022-12-24T13:02:25.563Z,101799.03
2022-12-24T13:04:53.155Z,101804.84
2022-12-24T13:07:38.036Z,101803.03
2022-12-24T13:13:20.344Z,101811.13
2022-12-24T13:16:36.182Z,101810.56
2022-12-24T13:19:47.362Z,101822.88
2022-12-24T13:22:21.600Z,101822.50
2022-12-24T13:24:52.688Z,101831.28
2022-12-24T13:27:25.774Z,101827.31
2022-12-24T13:30:21.082Z,101831.78
2022-12-24T13:32:50.350Z,101828.22
2022-12-24T13:35:20.853Z,101835.63
2022-12-24T13:37:49.340Z,101826.03
2022-12-24T13:40:24.271Z,101822.06
2022-12-24T13:43:07.333Z,101836.72
2022-12-24T13:45:34.951Z,101830.63
2022-12-24T13:48:11.464Z,101830.69
2022-12-24T13:50:56.156Z,101836.00
2022-12-24T13:53:33.245Z,101838.97
2022-12-24T13:56:29.132Z,101831.69
2022-12-24T13:59:36.142Z,101830.47
2022-12-24T14:02:18.781Z,101833.81
2022-12-24T14:04:51.171Z,101833.91
2022-12-24T14:07:20.934Z,101837.28
2022-12-24T14:09:51.462Z,101839.13
2022-12-24T14:12:47.205Z,101842.81
2022-12-24T14:15:50.758Z,101843.59
2022-12-24T14:18:25.132Z,101836.50
2022-12-24T14:20:56.776Z,101844.50
2022-12-24T14:23:41.582Z,101846.00
2022-12-24T14:26:16.107Z,101845.09
2022-12-24T14:28:58.232Z,101851.41
2022-12-24T14:31:25.984Z,101841.94
2022-12-24T14:34:06.103Z,101847.84
2022-12-24T14:36:34.132Z,101839.03
2022-12-24T14:39:02.164Z,101839.38
2022-12-24T14:41:49.750Z,101845.41
2022-12-24T14:44:29.606Z,101842.63
2022-12-24T14:47:07.371Z,101848.41
2022-12-24T14:49:41.510Z,101853.38
2022-12-24T14:53:03.431Z,101851.91
2022-12-24T14:55:29.866Z,101851.00
2022-12-24T14:58:34.066Z,101848.97
2022-12-24T15:01:27.373Z,101846.28
2022-12-24T15:04:10.341Z,101852.13
2022-12-24T15:06:42.876Z,101851.94
2022-12-24T15:09:31.900Z,101841.72
2022-12-24T15:12:03.669Z,101851.19
2022-12-24T15:14:40.513Z,101844.25
2022-12-24T15:19:55.244Z,101845.22
2022-12-24T15:22:29.779Z,101849.63
2022-12-24T15:24:57.710Z,101846.88
2022-12-24T15:27:32.222Z,101850.44
2022-12-24T15:30:15.521Z,101840.59
2022-12-24T15:32:43.932Z,101840.38
2022-12-24T15:35:30.977Z,101845.16
2022-12-24T15:37:59.780Z,101840.34
2022-12-24T15:43:12.033Z,101837.00
2022-12-24T15:45:46.036Z,101844.16
2022-12-24T15:48:21.461Z,101836.50
2022-12-24T15:50:51.947Z,101831.47
2022-12-24T15:56:36.320Z,101832.59
2022-12-24T15:59:26.417Z,101834.47
2022-12-24T16:01:54.339Z,101832.06
2022-12-24T16:04:27.066Z,101834.00
2022-12-24T16:06:59.565Z,101829.28
2022-12-24T16:09:32.744Z,101827.41
2022-12-24T16:12:03.447Z,101838.47
2022-12-24T16:14:33.684Z,101832.44
2022-12-24T16:22:40.787Z,101816.06
2022-12-24T16:25:28.859Z,101820.72
2022-12-24T16:28:00.294Z,101816.59
2022-12-24T16:30:28.657Z,101810.66
2022-12-24T16:32:56.219Z,101814.56
2022-12-24T16:35:28.851Z,101824.78
2022-12-24T16:37:56.401Z,101814.94
2022-12-24T16:40:27.582Z,101817.91
2022-12-24T16:43:15.773Z,101814.84
2022-12-24T16:45:44.357Z,101811.78
2022-12-24T16:48:19.554Z,101815.34
2022-12-24T16:50:47.581Z,101812.63
2022-12-24T16:53:17.886Z,101825.56
2022-12-24T16:58:33.235Z,101820.16
2022-12-24T17:01:07.141Z,101814.56
2022-12-24T17:06:21.109Z,101831.22
2022-12-24T17:08:51.395Z,101816.97
2022-12-24T17:11:23.312Z,101817.94
2022-12-24T17:13:50.879Z,101817.53
2022-12-24T17:16:18.307Z,101814.31
2022-12-24T17:18:46.053Z,101817.72
2022-12-24T17:21:14.192Z,101822.84
2022-12-24T17:26:27.474Z,101817.81
2022-12-24T17:28:56.565Z,101805.06
2022-12-24T17:31:24.837Z,101807.13
2022-12-24T17:33:53.207Z,101807.69
2022-12-24T17:36:21.375Z,101810.66
2022-12-24T17:38:48.877Z,101812.03
2022-12-24T17:41:19.539Z,101807.41
2022-12-24T17:43:48.399Z,101811.84
2022-12-24T17:46:25.270Z,101807.56
2022-12-24T17:48:52.952Z,101813.53
2022-12-24T17:51:22.408Z,101805.06
2022-12-24T17:53:50.569Z,101803.09
2022-12-24T17:59:03.728Z,101802.72
2022-12-24T18:01:31.232Z,101806.00
2022-12-24T18:04:00.546Z,101805.31
2022-12-24T18:06:31.326Z,101806.22
2022-12-24T18:11:45.621Z,101807.75
2022-12-24T18:22:29.040Z,101803.81
2022-12-24T18:24:56.346Z,101808.75
2022-12-24T18:27:23.751Z,101811.72
2022-12-24T18:29:51.249Z,101812.09
2022-12-24T18:32:19.020Z,101806.63
2022-12-24T18:34:46.719Z,101804.72
2022-12-24T18:39:59.081Z,101800.22
2022-12-24T18:42:26.717Z,101795.72
2022-12-24T18:44:54.238Z,101797.72
2022-12-24T18:50:07.459Z,101799.75
2022-12-24T18:52:36.168Z,101805.78
2022-12-24T18:57:48.640Z,101809.03
2022-12-24T19:00:16.239Z,101804.84
2022-12-24T19:02:43.873Z,101809.97
2022-12-24T19:05:11.833Z,101811.84
2022-12-24T19:10:24.380Z,101806.44
2022-12-24T19:12:51.905Z,101794.28
2022-12-24T19:15:20.448Z,101793.50
2022-12-24T19:17:47.881Z,101804.00
2022-12-24T19:23:02.539Z,101794.81
2022-12-24T19:25:29.972Z,101800.88
2022-12-24T19:27:57.411Z,101795.34
2022-12-24T19:33:10.299Z,101813.72
2022-12-24T19:35:38.101Z,101811.66
2022-12-24T19:38:05.603Z,101814.78
2022-12-24T19:40:36.541Z,101804.28
2022-12-24T19:43:04.612Z,101803.91
2022-12-24T19:45:32.032Z,101810.50
2022-12-24T19:47:59.581Z,101799.25
2022-12-24T19:50:27.141Z,101797.66
2022-12-24T19:52:54.674Z,101795.44
2022-12-24T19:55:22.768Z,101795.47
2022-12-24T19:57:52.612Z,101796.03
2022-12-24T20:00:20.630Z,101797.41
2022-12-24T20:02:48.035Z,101790.97
2022-12-24T20:08:00.505Z,101791.97
2022-12-24T20:13:12.792Z,101789.25
2022-12-24T20:15:42.431Z,101795.91
2022-12-24T20:18:11.664Z,101802.31
2022-12-24T20:20:39.627Z,101799.50
2022-12-24T20:23:08.771Z,101797.16
2022-12-24T20:25:37.816Z,101788.88
2022-12-24T20:28:06.031Z,101786.56
2022-12-24T20:30:37.051Z,101794.53
2022-12-24T20:33:06.093Z,101789.13
2022-12-24T20:35:36.154Z,101787.06
2022-12-24T20:38:03.665Z,101790.19
2022-12-24T20:40:31.084Z,101797.47
2022-12-24T20:42:58.721Z,101791.94
2022-12-24T20:45:26.511Z,101794.78
2022-12-24T20:50:41.519Z,101795.06
2022-12-24T20:55:54.554Z,101799.69
2022-12-24T20:58:22.058Z,101798.31
2022-12-24T21:00:50.269Z,101796.88
2022-12-24T21:03:18.561Z,101800.31
2022-12-24T21:05:47.789Z,101801.16
2022-12-24T21:08:16.203Z,101805.41
2022-12-24T21:10:43.521Z,101805.03
2022-12-24T21:13:10.875Z,101796.88
2022-12-24T21:15:40.434Z,101796.13
2022-12-24T21:20:56.703Z,101798.13
2022-12-24T21:23:24.212Z,101804.72
2022-12-24T21:26:03.207Z,101798.34
2022-12-24T21:28:31.686Z,101808.72
2022-12-24T21:30:59.381Z,101806.22
2022-12-24T21:33:27.228Z,101808.53
2022-12-24T21:35:59.174Z,101811.06
2022-12-24T21:38:27.330Z,101804.69
2022-12-24T21:41:07.323Z,101816.31
2022-12-24T21:46:25.413Z,101815.06
2022-12-24T21:49:12.789Z,101813.56
2022-12-24T21:51:41.614Z,101813.34
2022-12-24T21:54:24.130Z,101805.84
2022-12-24T21:57:11.987Z,101806.78
2022-12-24T22:02:30.643Z,101813.06
2022-12-24T22:08:22.000Z,101816.00
2022-12-24T22:14:04.726Z,101811.78
2022-12-24T22:16:32.265Z,101816.81
2022-12-24T22:18:59.716Z,101813.88
2022-12-24T22:21:27.088Z,101810.13
2022-12-24T22:23:56.057Z,101812.22
2022-12-24T22:26:23.423Z,101814.16
2022-12-24T22:28:50.998Z,101819.28
2022-12-24T22:31:26.110Z,101816.38
2022-12-24T22:33:54.170Z,101811.28
2022-12-24T22:36:21.607Z,101816.78
2022-12-24T22:38:49.188Z,101814.78
2022-12-24T22:41:16.997Z,101818.34
2022-12-24T22:43:45.042Z,101817.75
2022-12-24T22:48:58.925Z,101822.22
2022-12-24T22:54:19.833Z,101817.31
2022-12-24T22:56:47.982Z,101820.28
2022-12-24T22:59:15.813Z,101826.59
2022-12-24T23:01:45.748Z,101826.03
2022-12-24T23:04:14.418Z,101826.47
2022-12-24T23:06:42.381Z,101832.13
2022-12-24T23:11:53.965Z,101824.56
2022-12-24T23:14:40.970Z,101828.22
2022-12-24T23:17:09.176Z,101824.66
2022-12-24T23:19:36.991Z,101835.09
2022-12-24T23:22:06.467Z,101835.63
2022-12-24T23:24:35.495Z,101829.03
2022-12-24T23:27:03.177Z,101832.78
2022-12-24T23:29:32.358Z,101835.41
2022-12-24T23:32:00.172Z,101838.84
2022-12-24T23:34:27.731Z,101826.22
2022-12-24T23:36:55.518Z,101829.75
2022-12-24T23:39:23.080Z,101834.91
2022-12-24T23:41:50.538Z,101832.16
2022-12-24T23:44:17.959Z,101830.94
2022-12-24T23:49:30.411Z,101825.50
2022-12-24T23:54:42.906Z,101823.34
2022-12-24T23:57:10.535Z,101813.31
2022-12-24T23:59:38.047Z,101818.31
